Time;durP1;ratioP1;P1;durP2;ratioP2;P2;SDS_P1;SDS_P2;PMS_P1;PMS_P2;Temp;Humidity;BMP_temperature;BMP_pressure;BME280_temperature;BME280_humidity;BME280_pressure;Samples;Min_cycle;Max_cycle;Signal;HPM_P1;HPM_P2
2020/12/30 00:01:41;;;;;;;1.22;0.50;;;;;;;5.41;100.00;97750.45;4394993;81;28575;-78
2020/12/30 00:07:43;;;;;;;0.98;0.50;;;;;;;5.08;100.00;97765.09;4382833;80;28558;-78
2020/12/30 00:13:45;;;;;;;1.20;0.60;;;;;;;5.09;100.00;97764.84;4391908;80;28606;-79
2020/12/30 00:19:47;;;;;;;1.50;0.70;;;;;;;4.99;100.00;97765.41;4313792;81;28600;-79
2020/12/30 00:25:50;;;;;;;1.75;0.82;;;;;;;5.01;100.00;97765.98;4338130;80;28572;-78
2020/12/30 00:31:52;;;;;;;1.32;0.68;;;;;;;4.93;100.00;97776.95;4436879;79;28548;-78
2020/12/30 00:37:55;;;;;;;2.60;0.85;;;;;;;4.75;100.00;97773.81;4306612;82;28606;-78
2020/12/30 00:43:56;;;;;;;1.82;0.90;;;;;;;4.65;100.00;97789.00;4324676;82;28579;-80
2020/12/30 00:49:59;;;;;;;1.72;0.72;;;;;;;4.57;100.00;97782.64;4325710;81;28595;-79
2020/12/30 00:56:01;;;;;;;1.95;0.90;;;;;;;4.44;100.00;97793.73;4325407;81;28585;-78
2020/12/30 01:02:03;;;;;;;4.00;1.40;;;;;;;4.14;100.00;97789.64;4353751;81;28561;-78
2020/12/30 01:08:07;;;;;;;3.50;1.00;;;;;;;4.20;100.00;97788.77;4352734;81;28602;-80
2020/12/30 01:14:10;;;;;;;1.80;1.00;;;;;;;3.80;100.00;97788.64;4374526;81;28619;-80
2020/12/30 01:20:13;;;;;;;1.67;0.85;;;;;;;3.80;100.00;97788.64;4339775;81;28624;-79
2020/12/30 01:26:15;;;;;;;1.72;0.80;;;;;;;3.55;100.00;97776.68;4389472;81;28631;-78
2020/12/30 01:32:17;;;;;;;2.20;0.98;;;;;;;3.37;100.00;97781.39;4398344;79;28599;-78
2020/12/30 01:38:20;;;;;;;2.15;0.72;;;;;;;3.46;100.00;97773.45;4355763;81;28562;-79
2020/12/30 01:44:22;;;;;;;1.62;0.70;;;;;;;3.52;100.00;97783.23;4318189;82;28559;-78
2020/12/30 01:50:24;;;;;;;1.62;0.80;;;;;;;3.28;100.00;97768.89;4382614;81;28585;-77
2020/12/30 01:56:31;;;;;;;2.95;1.37;;;;;;;3.58;100.00;97783.68;4387110;80;28613;-79
2020/12/30 02:02:34;;;;;;;3.77;1.35;;;;;;;3.38;100.00;97768.40;4357830;81;28597;-79
2020/12/30 02:08:36;;;;;;;2.98;1.62;;;;;;;3.06;100.00;97761.27;4360631;81;28560;-78
2020/12/30 02:14:39;;;;;;;2.90;1.60;;;;;;;3.08;100.00;97759.73;4334269;81;28563;-78
2020/12/30 02:20:41;;;;;;;3.42;1.25;;;;;;;3.02;100.00;97752.91;4351372;81;28619;-78
2020/12/30 02:26:43;;;;;;;5.12;2.10;;;;;;;3.05;100.00;97750.34;4359426;81;28565;-79
2020/12/30 02:32:48;;;;;;;2.83;1.55;;;;;;;3.22;100.00;97763.92;4343965;81;28547;-79
2020/12/30 02:38:54;;;;;;;3.77;1.72;;;;;;;3.10;100.00;97762.98;4337922;81;28534;-79
2020/12/30 02:45:01;;;;;;;2.72;1.32;;;;;;;3.11;100.00;97748.15;4330306;81;28618;-77
2020/12/30 02:51:03;;;;;;;4.33;2.00;;;;;;;3.00;100.00;97762.94;4339355;81;28574;-78
2020/12/30 02:57:06;;;;;;;2.22;1.12;;;;;;;2.93;100.00;97748.88;4336748;81;28605;-79
2020/12/30 03:03:08;;;;;;;5.03;1.90;;;;;;;2.64;100.00;97752.39;4364673;81;28551;-79
2020/12/30 03:09:09;;;;;;;3.05;1.50;;;;;;;2.62;100.00;97748.64;4398722;81;28610;-80
2020/12/30 03:15:12;;;;;;;3.62;2.00;;;;;;;2.77;100.00;97755.00;4357311;81;29132;-81
2020/12/30 03:21:14;;;;;;;4.15;2.37;;;;;;;2.81;100.00;97760.67;4380835;81;28555;-80
2020/12/30 03:27:16;;;;;;;5.05;2.50;;;;;;;2.56;100.00;97744.70;4316571;82;28622;-80
2020/12/30 03:33:18;;;;;;;3.92;2.05;;;;;;;2.72;100.00;97753.48;4391297;81;29001;-80
2020/12/30 03:39:20;;;;;;;7.72;3.65;;;;;;;2.44;100.00;97751.95;4342763;81;28605;-79
2020/12/30 03:45:22;;;;;;;8.20;4.28;;;;;;;2.29;100.00;97744.28;4350248;81;28586;-79
2020/12/30 03:51:24;;;;;;;7.20;3.22;;;;;;;2.22;100.00;97752.77;4346130;81;28564;-79
2020/12/30 03:57:26;;;;;;;7.92;4.33;;;;;;;2.13;100.00;97746.06;4373750;81;28587;-79
2020/12/30 04:03:28;;;;;;;8.90;4.55;;;;;;;2.15;100.00;97745.33;4373256;81;28595;-79
2020/12/30 04:09:31;;;;;;;9.93;5.28;;;;;;;2.16;100.00;97736.35;4374414;81;28535;-79
2020/12/30 04:15:33;;;;;;;13.45;5.55;;;;;;;2.32;100.00;97740.38;4373638;80;28575;-80
2020/12/30 04:21:37;;;;;;;10.30;5.10;;;;;;;2.40;100.00;97738.03;4373019;81;28649;-79
2020/12/30 04:27:39;;;;;;;9.13;5.10;;;;;;;2.17;100.00;97749.41;4348720;80;28570;-78
2020/12/30 04:33:41;;;;;;;9.68;4.97;;;;;;;2.29;100.00;97758.88;4353012;81;28604;-78
2020/12/30 04:39:43;;;;;;;8.85;4.12;;;;;;;2.18;100.00;97758.16;4373190;81;28556;-77
2020/12/30 04:45:46;;;;;;;8.60;4.12;;;;;;;2.06;100.00;97761.46;4360044;81;28554;-79
2020/12/30 04:51:50;;;;;;;8.80;3.75;;;;;;;2.03;100.00;97749.95;4367594;81;28585;-78
2020/12/30 04:58:09;;;;;;;8.68;4.03;;;;;;;1.38;100.00;97747.46;4372254;81;28547;-79
2020/12/30 05:04:12;;;;;;;8.78;4.45;;;;;;;1.50;100.00;97750.82;4366390;81;28590;-78
2020/12/30 05:10:16;;;;;;;7.45;4.50;;;;;;;1.36;100.00;97761.95;4365139;80;28650;-79
2020/12/30 05:16:20;;;;;;;8.88;3.98;;;;;;;1.59;100.00;97772.12;4365870;81;28583;-78
2020/12/30 05:22:22;;;;;;;8.33;4.33;;;;;;;1.35;100.00;97758.47;4349598;81;28546;-77
2020/12/30 05:28:24;;;;;;;11.40;4.85;;;;;;;1.53;100.00;97772.42;4346165;81;28547;-77
2020/12/30 05:34:26;;;;;;;8.40;4.22;;;;;;;1.60;100.00;97769.77;4368750;81;28599;-77
2020/12/30 05:40:31;;;;;;;9.48;4.50;;;;;;;1.60;100.00;97765.00;4294372;83;28618;-77
2020/12/30 05:46:33;;;;;;;10.20;4.67;;;;;;;1.29;100.00;97762.44;4345650;81;28646;-78
2020/12/30 05:52:36;;;;;;;10.23;3.87;;;;;;;1.42;100.00;97764.29;4368771;81;50310;-78
2020/12/30 05:58:44;;;;;;;9.45;4.40;;;;;;;1.17;100.00;97755.59;4368795;81;28579;-77
2020/12/30 06:04:46;;;;;;;7.90;3.90;;;;;;;1.13;100.00;97753.05;4334849;81;28567;-80
2020/12/30 06:10:50;;;;;;;7.53;4.17;;;;;;;1.18;100.00;97759.38;4327376;82;28612;-79
2020/12/30 06:16:55;;;;;;;10.95;5.10;;;;;;;1.45;100.00;97762.55;4327369;82;28571;-78
2020/12/30 06:23:07;;;;;;;9.35;4.60;;;;;;;1.61;100.00;97773.25;4327555;82;28614;-78
2020/12/30 06:29:16;;;;;;;9.18;4.85;;;;;;;1.64;100.00;97767.53;4327455;81;28586;-78
2020/12/30 06:35:28;;;;;;;9.80;5.33;;;;;;;1.73;100.00;97766.30;4326475;82;28620;-78
2020/12/30 06:41:55;;;;;;;12.40;5.35;;;;;;;1.76;100.00;97768.53;4300726;81;28558;-78
2020/12/30 06:48:00;;;;;;;9.10;4.70;;;;;;;1.72;100.00;97763.36;4254725;83;28582;-80
2020/12/30 06:54:04;;;;;;;15.05;6.72;;;;;;;1.45;100.00;97759.91;4254136;82;28612;-79
2020/12/30 07:00:35;;;;;;;11.70;6.15;;;;;;;1.72;100.00;97758.05;4302914;82;28599;-79
2020/12/30 07:06:37;;;;;;;12.63;5.65;;;;;;;2.02;100.00;97761.58;4323528;82;28548;-80
2020/12/30 07:12:39;;;;;;;12.98;5.95;;;;;;;1.97;100.00;97769.85;4323414;81;28627;-78
2020/12/30 07:18:43;;;;;;;11.50;5.30;;;;;;;1.97;100.00;97763.23;4324391;81;28576;-77
2020/12/30 07:24:55;;;;;;;10.30;5.25;;;;;;;1.91;100.00;97771.50;4323824;81;28567;-78
2020/12/30 07:30:57;;;;;;;12.05;6.20;;;;;;;1.71;100.00;97787.40;4312027;82;28560;-79
2020/12/30 07:36:59;;;;;;;11.18;6.00;;;;;;;1.70;100.00;97782.63;4327207;81;28599;-80
2020/12/30 07:43:01;;;;;;;11.12;5.80;;;;;;;1.95;100.00;97796.06;4286380;81;28598;-80
2020/12/30 07:49:17;;;;;;;11.97;6.08;;;;;;;2.23;100.00;97804.25;4328765;81;28565;-80
2020/12/30 07:55:26;;;;;;;13.18;5.78;;;;;;;2.26;100.00;97798.26;4321220;82;28579;-81
2020/12/30 08:01:28;;;;;;;16.70;7.15;;;;;;;2.34;100.00;97798.01;4315360;81;28607;-82
2020/12/30 08:07:30;;;;;;;13.35;6.53;;;;;;;2.38;100.00;97789.95;4321180;82;28555;-81
2020/12/30 08:13:33;;;;;;;13.68;5.83;;;;;;;2.42;100.00;97777.09;4319058;81;28621;-81
2020/12/30 08:19:49;;;;;;;16.12;6.40;;;;;;;2.65;100.00;97780.55;4306895;81;28551;-83
2020/12/30 08:25:51;;;;;;;11.95;6.42;;;;;;;2.83;100.00;97775.91;4319459;81;28540;-83
2020/12/30 08:31:57;;;;;;;15.85;7.37;;;;;;;2.90;100.00;97777.19;4312062;82;28587;-87
2020/12/30 08:38:17;;;;;;;12.88;6.60;;;;;;;2.80;100.00;97786.92;4297617;81;28584;-88
2020/12/30 08:44:22;;;;;;;13.72;7.45;;;;;;;2.86;100.00;97787.91;4307299;81;28547;-87
2020/12/30 08:50:27;;;;;;;16.27;7.53;;;;;;;3.06;100.00;97795.80;4312372;82;28641;-84
2020/12/30 08:56:29;;;;;;;14.63;7.83;;;;;;;3.22;100.00;97797.13;4312507;81;28570;-84
2020/12/30 09:02:31;;;;;;;15.30;8.28;;;;;;;3.22;100.00;97797.13;4310205;81;28569;-85
2020/12/30 09:08:34;;;;;;;20.48;8.43;;;;;;;3.21;100.00;97803.47;4346478;81;28575;-85
2020/12/30 09:14:38;;;;;;;24.55;9.20;;;;;;;3.15;100.00;97803.81;4335129;81;28555;-85
2020/12/30 09:20:41;;;;;;;17.48;9.23;;;;;;;3.26;100.00;97799.64;4358638;81;28552;-87
2020/12/30 09:26:44;;;;;;;18.75;8.35;;;;;;;3.27;100.00;97793.83;4355006;81;28599;-86
2020/12/30 09:32:49;;;;;;;14.78;7.92;;;;;;;3.31;100.00;97790.53;4337830;81;28626;-87
2020/12/30 09:38:55;;;;;;;20.10;7.83;;;;;;;3.46;100.00;97789.40;4369516;80;28565;-89
2020/12/30 09:44:58;;;;;;;19.62;8.48;;;;;;;3.62;100.00;97793.37;4350354;80;28559;-88
2020/12/30 09:51:00;;;;;;;16.02;9.23;;;;;;;3.87;100.00;97783.26;4360308;81;28597;-92
2020/12/30 09:57:02;;;;;;;18.20;9.13;;;;;;;3.87;100.00;97784.59;4371586;80;28650;-88
2020/12/30 10:03:09;;;;;;;17.02;9.53;;;;;;;3.94;100.00;97773.89;4365264;81;28649;-89
2020/12/30 10:09:11;;;;;;;18.73;9.00;;;;;;;4.06;100.00;97770.80;4377159;80;28634;-84
2020/12/30 10:15:13;;;;;;;17.67;7.90;;;;;;;4.29;100.00;97770.66;4391565;80;28569;-86
2020/12/30 10:21:16;;;;;;;16.23;7.17;;;;;;;4.32;100.00;97757.73;4387673;80;28572;-85
2020/12/30 10:27:18;;;;;;;15.25;7.85;;;;;;;4.38;100.00;97755.23;4375173;80;28645;-88
2020/12/30 10:33:20;;;;;;;16.57;8.20;;;;;;;4.48;100.00;97740.05;4313808;81;28555;-85
2020/12/30 10:39:22;;;;;;;21.45;9.15;;;;;;;4.50;100.00;97737.98;4313416;82;28559;-87
2020/12/30 10:45:25;;;;;;;21.23;8.88;;;;;;;4.66;100.00;97724.56;4288193;81;28560;-88
2020/12/30 10:51:31;;;;;;;16.00;8.40;;;;;;;4.91;100.00;97720.97;4293992;81;28566;-90
2020/12/30 10:57:33;;;;;;;16.37;7.87;;;;;;;5.01;100.00;97712.71;4320299;81;28554;-90
2020/12/30 11:03:37;;;;;;;15.93;7.90;;;;;;;5.14;100.00;97709.55;4386768;80;28615;-91
2020/12/30 11:09:44;;;;;;;18.82;9.23;;;;;;;5.18;100.00;97704.07;4375124;80;28572;-91
2020/12/30 11:15:48;;;;;;;13.35;7.03;;;;;;;5.21;100.00;97708.94;4310970;82;28609;-91
2020/12/30 11:21:54;;;;;;;16.73;7.80;;;;;;;4.98;100.00;97715.02;4390110;80;28549;-90
2020/12/30 11:27:56;;;;;;;20.05;8.45;;;;;;;4.85;100.00;97704.84;4390850;80;28616;-89
2020/12/30 11:33:58;;;;;;;21.75;9.03;;;;;;;5.03;100.00;97700.50;4379061;80;28631;-89
2020/12/30 11:40:01;;;;;;;15.70;8.35;;;;;;;4.98;100.00;97711.84;4374977;80;28595;-89
2020/12/30 11:46:03;;;;;;;17.52;8.05;;;;;;;4.94;100.00;97725.30;4382699;80;28610;-89
2020/12/30 11:52:05;;;;;;;16.48;7.47;;;;;;;4.99;100.00;97719.30;4370525;81;28547;-88
2020/12/30 11:58:07;;;;;;;14.47;8.20;;;;;;;4.94;100.00;97722.64;4365974;80;28634;-91
2020/12/30 12:04:10;;;;;;;18.95;8.98;;;;;;;5.01;100.00;97733.22;4364474;80;28639;-90
2020/12/30 12:10:12;;;;;;;16.75;8.68;;;;;;;4.84;100.00;97739.17;4378421;81;28598;-93
2020/12/30 12:16:14;;;;;;;17.10;8.75;;;;;;;4.96;100.00;97738.41;4361578;81;28579;-90
2020/12/30 12:22:16;;;;;;;15.63;8.23;;;;;;;5.12;100.00;97735.61;4350779;81;28620;-91
2020/12/30 12:28:45;;;;;;;18.23;9.18;;;;;;;5.19;100.00;97735.51;4358105;81;28563;-91
2020/12/30 12:34:51;;;;;;;18.70;9.28;;;;;;;5.15;100.00;97747.97;4351991;81;28973;-91
2020/12/30 12:40:53;;;;;;;17.23;9.17;;;;;;;5.19;100.00;97750.16;4359954;80;28571;-88
2020/12/30 12:46:56;;;;;;;17.85;9.25;;;;;;;5.11;100.00;97760.63;4366927;80;28556;-89
2020/12/30 12:52:58;;;;;;;19.25;10.45;;;;;;;5.23;100.00;97762.02;4319645;80;28558;-88
2020/12/30 12:59:00;;;;;;;19.87;11.10;;;;;;;5.18;100.00;97759.20;4373855;80;28591;-88
2020/12/30 13:05:03;;;;;;;20.75;11.10;;;;;;;5.23;100.00;97760.14;4356722;80;28587;-87
2020/12/30 13:11:05;;;;;;;20.20;10.75;;;;;;;5.32;100.00;97763.81;4355936;80;28567;-87
2020/12/30 13:17:08;;;;;;;15.70;9.48;;;;;;;5.26;100.00;97771.70;4363692;80;28536;-85
2020/12/30 13:23:10;;;;;;;15.95;9.30;;;;;;;5.16;100.00;97771.44;4343662;81;28612;-87
2020/12/30 13:29:12;;;;;;;19.67;10.98;;;;;;;5.23;100.00;97763.34;4332563;80;28582;-86
2020/12/30 13:35:14;;;;;;;17.73;10.13;;;;;;;5.39;100.00;97760.00;4343902;80;28597;-84
2020/12/30 13:41:18;;;;;;;24.30;11.45;;;;;;;5.23;100.00;97778.00;4347578;80;28586;-88
2020/12/30 13:47:21;;;;;;;18.23;9.63;;;;;;;5.19;100.00;97786.97;4359096;80;28562;-84
2020/12/30 13:53:25;;;;;;;20.27;10.35;;;;;;;5.20;100.00;97793.91;4325287;80;28567;-83
2020/12/30 13:59:28;;;;;;;21.15;12.00;;;;;;;5.28;100.00;97794.94;4358549;80;28552;-82
2020/12/30 14:05:34;;;;;;;26.65;13.78;;;;;;;5.18;100.00;97797.84;4315473;80;28544;-84
2020/12/30 14:11:34;;;;;;;26.05;13.53;;;;;;;5.17;100.00;97806.37;4262416;81;28615;-88
2020/12/30 14:17:36;;;;;;;26.50;15.15;;;;;;;4.96;100.00;97811.15;4281872;82;28572;-83
2020/12/30 14:30:13;;;;;;;25.10;13.48;;;;;;;4.52;100.00;97821.08;4604109;76;71969;-86
2020/12/30 14:36:22;;;;;;;27.17;13.30;;;;;;;4.50;100.00;97821.31;4500725;78;28572;-91
2020/12/30 14:42:29;;;;;;;34.67;14.55;;;;;;;4.45;100.00;97830.47;4489459;78;28538;-87
2020/12/30 14:48:32;;;;;;;32.38;15.98;;;;;;;4.38;100.00;97823.09;4475681;78;28624;-86
2020/12/30 14:54:38;;;;;;;26.23;15.05;;;;;;;4.32;100.00;97836.73;4499961;78;28546;-85
2020/12/30 15:00:42;;;;;;;29.35;14.98;;;;;;;4.36;100.00;97847.25;4497368;78;28586;-88
2020/12/30 15:06:44;;;;;;;28.02;15.05;;;;;;;4.39;100.00;97850.80;4496854;78;28549;-89
2020/12/30 15:12:46;;;;;;;34.15;17.65;;;;;;;4.48;100.00;97858.50;4506914;78;29008;-84
2020/12/30 15:18:48;;;;;;;33.53;17.55;;;;;;;4.49;100.00;97857.46;4508243;78;28551;-83
2020/12/30 15:24:53;;;;;;;31.30;16.90;;;;;;;4.42;100.00;97862.32;4492899;78;28600;-83
2020/12/30 15:30:59;;;;;;;31.27;17.03;;;;;;;4.22;100.00;97857.20;4499237;78;28550;-86
2020/12/30 15:37:01;;;;;;;34.73;18.10;;;;;;;4.14;100.00;97871.60;4488827;78;28561;-84
2020/12/30 15:43:07;;;;;;;39.10;20.97;;;;;;;4.13;100.00;97869.16;4503736;78;28610;-80
2020/12/30 15:49:09;;;;;;;37.00;21.05;;;;;;;4.03;100.00;97886.95;4493732;78;28597;-84
2020/12/30 15:55:13;;;;;;;43.73;22.65;;;;;;;3.90;100.00;97891.84;4518100;78;28596;-84
2020/12/30 16:01:15;;;;;;;40.63;22.95;;;;;;;3.98;100.00;97893.41;4472511;78;28610;-84
2020/12/30 16:07:20;;;;;;;33.92;19.55;;;;;;;3.92;100.00;97894.30;4490885;78;28576;-86
2020/12/30 16:13:23;;;;;;;36.17;21.05;;;;;;;3.97;100.00;97926.36;4510580;79;28546;-86
2020/12/30 16:19:27;;;;;;;40.52;22.05;;;;;;;3.95;100.00;97933.22;4500292;78;28588;-86
2020/12/30 16:25:30;;;;;;;47.60;26.12;;;;;;;3.95;100.00;97929.76;4512697;78;28640;-85
2020/12/30 16:31:43;;;;;;;50.25;27.25;;;;;;;3.97;100.00;97940.48;4486033;78;29113;-89
2020/12/30 16:37:45;;;;;;;44.58;25.75;;;;;;;3.83;100.00;97949.06;4506640;78;28541;-86
2020/12/30 16:43:47;;;;;;;43.23;23.87;;;;;;;3.82;100.00;97956.74;4481153;78;28597;-87
2020/12/30 16:49:51;;;;;;;41.35;24.05;;;;;;;3.90;100.00;97940.53;4497133;78;28554;-86
2020/12/30 16:55:54;;;;;;;49.95;28.42;;;;;;;4.03;100.00;97952.91;4512793;78;28578;-85
2020/12/30 17:01:56;;;;;;;50.60;27.60;;;;;;;4.00;100.00;97955.18;4496710;78;28579;-87
2020/12/30 17:07:58;;;;;;;51.30;27.60;;;;;;;4.02;100.00;97973.09;4488833;78;28580;-87
2020/12/30 17:14:03;;;;;;;46.65;25.12;;;;;;;3.99;100.00;97980.15;4496739;77;28578;-86
2020/12/30 17:20:05;;;;;;;39.23;21.60;;;;;;;3.92;100.00;97974.88;4479983;78;28639;-85
2020/12/30 17:26:13;;;;;;;43.05;24.25;;;;;;;3.90;100.00;97972.45;4485020;78;28582;-88
2020/12/30 17:32:20;;;;;;;44.75;25.62;;;;;;;3.94;100.00;97964.03;4513713;78;28555;-88
2020/12/30 17:38:23;;;;;;;51.90;28.73;;;;;;;4.10;100.00;97972.02;4509742;78;28648;-90
2020/12/30 17:44:26;;;;;;;46.25;27.48;;;;;;;4.25;100.00;97987.66;4476066;78;28553;-89
2020/12/30 17:50:29;;;;;;;42.55;24.02;;;;;;;4.23;100.00;97995.05;4458867;79;28555;-90
2020/12/30 17:56:31;;;;;;;40.78;23.42;;;;;;;4.11;100.00;97996.25;4464977;78;28547;-88
2020/12/30 18:02:36;;;;;;;39.42;22.48;;;;;;;4.12;100.00;98004.03;4425786;79;28578;-92
2020/12/30 18:08:43;;;;;;;47.30;25.65;;;;;;;4.14;100.00;98013.93;4462325;79;28591;-90
2020/12/30 18:14:52;;;;;;;43.85;25.43;;;;;;;4.15;100.00;98024.05;4445623;79;28630;-91
2020/12/30 18:20:52;;;;;;;48.65;27.02;;;;;;;4.14;100.00;98018.42;4461290;79;28628;-84
2020/12/30 18:26:54;;;;;;;39.88;22.35;;;;;;;4.25;100.00;98014.27;4438376;79;28566;-85
2020/12/30 18:32:56;;;;;;;39.63;23.05;;;;;;;4.17;100.00;98010.83;4454118;78;28558;-82
2020/12/30 18:39:01;;;;;;;39.08;22.98;;;;;;;4.15;100.00;98014.73;4446354;78;28586;-85
2020/12/30 18:45:07;;;;;;;46.20;25.77;;;;;;;4.18;100.00;98020.98;4233780;82;28591;-83
2020/12/30 18:51:11;;;;;;;45.17;25.35;;;;;;;4.22;100.00;98023.50;4437808;79;28542;-84
2020/12/30 18:57:13;;;;;;;46.98;26.30;;;;;;;4.21;100.00;98023.20;4467900;78;28543;-87
2020/12/30 19:03:15;;;;;;;41.70;23.77;;;;;;;4.23;100.00;98026.45;4427269;79;28640;-82
2020/12/30 19:09:18;;;;;;;37.30;21.68;;;;;;;4.13;100.00;98015.47;4427057;78;28631;-84
2020/12/30 19:15:20;;;;;;;40.33;22.65;;;;;;;4.41;100.00;98023.58;4420762;79;28558;-83
2020/12/30 19:21:22;;;;;;;41.92;24.12;;;;;;;4.50;100.00;98029.44;4428042;78;28608;-84
2020/12/30 19:27:25;;;;;;;42.90;24.82;;;;;;;4.30;100.00;98017.92;4429922;79;28643;-86
2020/12/30 19:33:27;;;;;;;44.58;25.17;;;;;;;4.09;100.00;98035.02;4436056;79;28572;-84
2020/12/30 19:39:29;;;;;;;41.65;22.22;;;;;;;4.01;100.00;98043.25;4456651;79;28574;-83
2020/12/30 19:45:31;;;;;;;41.30;21.73;;;;;;;4.18;100.00;98040.92;4438778;79;28608;-82
2020/12/30 19:51:36;;;;;;;39.85;21.27;;;;;;;4.15;100.00;98055.47;4443900;79;28661;-83
2020/12/30 19:57:38;;;;;;;35.28;21.00;;;;;;;4.25;100.00;98052.33;4458653;78;28641;-81
2020/12/30 20:03:41;;;;;;;44.55;22.95;;;;;;;4.30;100.00;98045.86;4442659;79;28586;-83
2020/12/30 20:09:44;;;;;;;43.60;24.07;;;;;;;4.48;100.00;98052.80;4463700;79;28546;-87
2020/12/30 20:15:47;;;;;;;58.75;29.40;;;;;;;4.40;100.00;98061.88;4449654;79;28641;-85
2020/12/30 20:21:49;;;;;;;61.53;31.85;;;;;;;4.41;100.00;98084.27;4460143;78;28563;-85
2020/12/30 20:27:51;;;;;;;56.02;31.15;;;;;;;4.45;100.00;98095.30;4461778;78;28629;-88
2020/12/30 20:33:53;;;;;;;56.35;30.12;;;;;;;4.39;100.00;98098.30;4447569;79;28551;-89
2020/12/30 20:39:56;;;;;;;66.35;35.08;;;;;;;4.32;100.00;98109.49;4449716;78;28610;-90
2020/12/30 20:45:59;;;;;;;70.12;36.65;;;;;;;4.45;100.00;98110.77;4465129;78;28562;-86
2020/12/30 20:52:01;;;;;;;63.15;33.05;;;;;;;4.49;100.00;98115.66;4427617;78;28569;-88
2020/12/30 20:58:03;;;;;;;75.40;37.17;;;;;;;4.35;100.00;98113.08;4431419;78;28558;-89
2020/12/30 21:04:05;;;;;;;80.67;41.73;;;;;;;4.22;100.00;98124.60;4397947;79;28549;-91
2020/12/30 21:10:08;;;;;;;87.88;44.00;;;;;;;4.45;100.00;98132.06;4441950;78;28619;-90
2020/12/30 21:16:10;;;;;;;80.92;40.90;;;;;;;4.37;100.00;98142.13;4460898;78;28562;-89
2020/12/30 21:22:12;;;;;;;73.95;39.53;;;;;;;4.26;100.00;98152.94;4421791;78;28559;-88
2020/12/30 21:28:14;;;;;;;75.78;39.35;;;;;;;4.29;100.00;98157.83;4292608;80;28583;-90
2020/12/30 21:34:17;;;;;;;81.65;42.53;;;;;;;4.28;100.00;98165.52;4288315;80;28611;-88
2020/12/30 21:40:22;;;;;;;83.47;43.00;;;;;;;4.32;100.00;98168.88;4314491;80;28608;-82
2020/12/30 21:46:25;;;;;;;77.97;38.67;;;;;;;4.38;100.00;98181.05;4300129;80;28576;-84
2020/12/30 21:52:27;;;;;;;72.67;37.65;;;;;;;4.42;100.00;98185.70;4299699;81;28550;-84
2020/12/30 21:58:29;;;;;;;68.78;34.27;;;;;;;4.52;100.00;98183.93;4303874;80;28555;-85
2020/12/30 22:04:32;;;;;;;63.10;30.85;;;;;;;4.63;100.00;98184.28;4295469;81;28549;-83
2020/12/30 22:10:34;;;;;;;68.00;34.03;;;;;;;4.61;100.00;98187.15;4316026;80;28632;-86
2020/12/30 22:16:38;;;;;;;73.25;37.08;;;;;;;4.61;100.00;98191.14;4299293;80;28553;-85
2020/12/30 22:22:40;;;;;;;77.00;37.98;;;;;;;4.58;100.00;98189.75;4327943;80;28587;-84
2020/12/30 22:28:43;;;;;;;74.03;37.63;;;;;;;4.49;100.00;98191.02;4377060;79;28569;-85
2020/12/30 22:34:48;;;;;;;71.30;36.83;;;;;;;4.54;100.00;98205.83;4421330;78;28617;-83
2020/12/30 22:40:51;;;;;;;69.67;35.90;;;;;;;4.33;100.00;98208.29;4463699;79;28611;-84
2020/12/30 22:46:53;;;;;;;82.02;39.70;;;;;;;4.23;100.00;98211.91;4448325;78;28610;-83
2020/12/30 22:52:56;;;;;;;80.30;42.40;;;;;;;4.08;100.00;98208.17;4453738;79;28570;-83
2020/12/30 22:58:58;;;;;;;89.20;43.78;;;;;;;4.04;100.00;98207.77;4463008;78;28579;-82
2020/12/30 23:05:00;;;;;;;83.00;41.40;;;;;;;4.02;100.00;98213.28;4451208;78;28635;-83
2020/12/30 23:11:02;;;;;;;77.95;38.83;;;;;;;3.86;100.00;98221.73;4463000;79;28668;-83
2020/12/30 23:17:04;;;;;;;76.30;38.10;;;;;;;3.79;100.00;98223.57;4434179;79;28551;-82
2020/12/30 23:23:07;;;;;;;94.05;46.73;;;;;;;3.87;100.00;98225.48;4441209;78;28574;-83
2020/12/30 23:29:09;;;;;;;99.37;49.98;;;;;;;3.88;100.00;98223.13;4437687;79;28546;-84
2020/12/30 23:35:11;;;;;;;110.25;51.15;;;;;;;3.76;100.00;98220.80;4463360;79;28548;-81
2020/12/30 23:41:13;;;;;;;100.85;49.60;;;;;;;3.62;100.00;98229.30;4464479;79;28575;-81
2020/12/30 23:47:16;;;;;;;96.60;46.30;;;;;;;3.62;100.00;98224.81;4463667;79;28534;-82
2020/12/30 23:53:18;;;;;;;96.02;46.53;;;;;;;3.67;100.00;98226.03;4435688;80;28599;-83
2020/12/30 23:59:20;;;;;;;89.75;43.13;;;;;;;3.73;100.00;98226.55;4464129;79;28527;-83
